Time;durP1;ratioP1;P1;durP2;ratioP2;P2;SDS_P1;SDS_P2;PMS_P1;PMS_P2;Temp;Humidity;BMP_temperature;BMP_pressure;BME280_temperature;BME280_humidity;BME280_pressure;Samples;Min_cycle;Max_cycle;Signal;HPM_P1;HPM_P2
2024/04/10 00:01:23;;;;;;;13.50;13.10;;;;;;;;;;5359952;26;20492;-69
2024/04/10 00:03:53;;;;;;;14.17;13.67;;;;;;;;;;5358416;26;20473;-69
2024/04/10 00:06:19;;;;;;;13.37;12.97;;;;;;;;;;5359865;26;20469;-69
2024/04/10 00:08:50;;;;;;;13.50;13.10;;;;;;;;;;5359541;26;20539;-68
2024/04/10 00:11:21;;;;;;;13.60;13.20;;;;;;;;;;5360729;26;20469;-69
2024/04/10 00:13:50;;;;;;;14.40;13.90;;;;;;;;;;5356895;26;21189;-70
2024/04/10 00:16:17;;;;;;;13.80;13.40;;;;;;;;;;5359191;26;20489;-70
2024/04/10 00:18:47;;;;;;;13.30;12.90;;;;;;;;;;5359420;26;20596;-69
2024/04/10 00:21:14;;;;;;;13.60;13.20;;;;;;;;;;5358650;26;20477;-68
2024/04/10 00:23:43;;;;;;;14.30;13.80;;;;;;;;;;5357705;26;20494;-68
2024/04/10 00:26:12;;;;;;;13.90;13.50;;;;;;;;;;5360778;26;20464;-68
2024/04/10 00:28:41;;;;;;;13.57;13.17;;;;;;;;;;5358641;26;20830;-68
2024/04/10 00:31:07;;;;;;;13.83;13.43;;;;;;;;;;5357248;26;21450;-68
2024/04/10 00:33:38;;;;;;;13.70;13.30;;;;;;;;;;5358297;26;20528;-69
2024/04/10 00:36:05;;;;;;;13.50;13.10;;;;;;;;;;5358912;26;20495;-68
2024/04/10 00:38:35;;;;;;;13.70;13.30;;;;;;;;;;5357764;26;21133;-68
2024/04/10 00:41:02;;;;;;;13.80;13.40;;;;;;;;;;5357032;26;21058;-68
2024/04/10 00:43:34;;;;;;;13.40;13.00;;;;;;;;;;5359823;26;20477;-68
2024/04/10 00:46:08;;;;;;;13.30;12.90;;;;;;;;;;5360768;26;21171;-69
2024/04/10 00:48:37;;;;;;;13.83;13.43;;;;;;;;;;5360536;26;20875;-68
2024/04/10 00:51:04;;;;;;;13.50;13.10;;;;;;;;;;5357502;26;20870;-69
2024/04/10 00:53:33;;;;;;;13.40;13.00;;;;;;;;;;5358601;26;21239;-68
2024/04/10 00:56:00;;;;;;;13.50;13.10;;;;;;;;;;5399181;26;20480;-68
2024/04/10 00:58:29;;;;;;;12.90;12.50;;;;;;;;;;5401865;26;20818;-68
2024/04/10 01:00:58;;;;;;;12.20;11.90;;;;;;;;;;5399845;26;20480;-69
2024/04/10 01:03:27;;;;;;;12.50;12.20;;;;;;;;;;5405270;26;20545;-69
2024/04/10 01:05:57;;;;;;;12.37;12.07;;;;;;;;;;5409205;26;20473;-68
2024/04/10 01:08:27;;;;;;;12.50;12.10;;;;;;;;;;5394398;26;20589;-69
2024/04/10 01:10:53;;;;;;;11.90;11.60;;;;;;;;;;5400296;26;20608;-69
2024/04/10 01:13:22;;;;;;;11.97;11.67;;;;;;;;;;5399851;26;20519;-68
2024/04/10 01:15:49;;;;;;;12.00;11.70;;;;;;;;;;5401503;26;20529;-69
2024/04/10 01:18:21;;;;;;;11.90;11.60;;;;;;;;;;5400378;26;20801;-68
2024/04/10 01:20:48;;;;;;;11.67;11.37;;;;;;;;;;5391898;26;20619;-69
2024/04/10 01:23:20;;;;;;;11.53;11.23;;;;;;;;;;5381354;26;20479;-69
2024/04/10 01:25:46;;;;;;;11.60;11.30;;;;;;;;;;5399523;26;20972;-68
2024/04/10 01:28:16;;;;;;;11.47;11.17;;;;;;;;;;5404924;26;20485;-68
2024/04/10 01:30:42;;;;;;;11.20;10.90;;;;;;;;;;5398033;26;20551;-69
2024/04/10 01:33:11;;;;;;;11.10;10.80;;;;;;;;;;5407596;26;20488;-69
2024/04/10 01:35:38;;;;;;;11.23;10.93;;;;;;;;;;5405089;26;20529;-68
2024/04/10 01:38:07;;;;;;;11.03;10.73;;;;;;;;;;5403300;26;20534;-69
2024/04/10 01:40:36;;;;;;;11.30;11.00;;;;;;;;;;5394808;26;20486;-69
2024/04/10 01:43:05;;;;;;;11.67;11.37;;;;;;;;;;5387821;26;20484;-68
2024/04/10 01:45:31;;;;;;;10.70;10.50;;;;;;;;;;5400459;26;20532;-68
2024/04/10 01:48:00;;;;;;;10.47;10.27;;;;;;;;;;5387384;26;20473;-69
2024/04/10 01:50:27;;;;;;;10.60;10.40;;;;;;;;;;5408470;26;20489;-68
2024/04/10 01:52:56;;;;;;;11.43;11.13;;;;;;;;;;5403659;26;20788;-68
2024/04/10 01:55:22;;;;;;;10.57;10.37;;;;;;;;;;5394657;26;20466;-70
2024/04/10 01:57:54;;;;;;;10.30;10.10;;;;;;;;;;5405674;26;21002;-69
2024/04/10 02:00:22;;;;;;;10.53;10.33;;;;;;;;;;5399845;26;20894;-69
2024/04/10 02:02:51;;;;;;;10.57;10.37;;;;;;;;;;5407003;26;20528;-69
2024/04/10 02:05:18;;;;;;;11.10;10.80;;;;;;;;;;5394650;26;20572;-69
2024/04/10 02:07:46;;;;;;;11.10;10.80;;;;;;;;;;5407728;26;20473;-69
2024/04/10 02:10:13;;;;;;;11.20;10.90;;;;;;;;;;5410942;26;20537;-68
2024/04/10 02:12:42;;;;;;;10.00;9.80;;;;;;;;;;5402333;26;20569;-69
2024/04/10 02:15:11;;;;;;;10.27;10.07;;;;;;;;;;5400742;26;20484;-69
2024/04/10 02:17:40;;;;;;;9.90;9.70;;;;;;;;;;5399407;26;20564;-69
2024/04/10 02:20:07;;;;;;;10.10;9.90;;;;;;;;;;5398140;26;20477;-69
2024/04/10 02:23:52;;;;;;;10.10;9.90;;;;;;;;;;5529112;25;20551;-69
2024/04/10 02:26:20;;;;;;;9.90;9.70;;;;;;;;;;5523659;25;20557;-69
2024/04/10 02:28:49;;;;;;;9.80;9.60;;;;;;;;;;5531013;25;20481;-70
2024/04/10 02:31:17;;;;;;;9.47;9.27;;;;;;;;;;5529058;25;20530;-70
2024/04/10 02:33:46;;;;;;;9.80;9.60;;;;;;;;;;5523038;25;20577;-69
2024/04/10 02:36:12;;;;;;;9.20;9.00;;;;;;;;;;5515039;25;20464;-70
2024/04/10 02:38:42;;;;;;;8.50;8.40;;;;;;;;;;5538734;25;20539;-70
2024/04/10 02:41:11;;;;;;;9.20;9.00;;;;;;;;;;5511719;25;20483;-69
2024/04/10 02:43:40;;;;;;;8.70;8.60;;;;;;;;;;5537893;25;20936;-70
2024/04/10 02:46:06;;;;;;;8.30;8.20;;;;;;;;;;5527204;25;20598;-69
2024/04/10 02:48:35;;;;;;;8.80;8.70;;;;;;;;;;5526445;25;20586;-70
2024/04/10 02:51:03;;;;;;;8.40;8.30;;;;;;;;;;5537117;25;20819;-69
2024/04/10 02:53:32;;;;;;;8.47;8.37;;;;;;;;;;5530259;25;20480;-69
2024/04/10 02:55:59;;;;;;;8.53;8.43;;;;;;;;;;5530235;25;20466;-69
2024/04/10 02:58:32;;;;;;;8.70;8.60;;;;;;;;;;5507875;25;20527;-69
2024/04/10 03:00:59;;;;;;;9.27;9.07;;;;;;;;;;5501018;25;20466;-69
2024/04/10 03:03:28;;;;;;;9.20;9.00;;;;;;;;;;5532794;25;21012;-69
2024/04/10 03:06:01;;;;;;;9.13;8.93;;;;;;;;;;5533067;25;20526;-69
2024/04/10 03:08:30;;;;;;;9.53;9.33;;;;;;;;;;5531903;25;20870;-69
2024/04/10 03:10:56;;;;;;;9.20;9.00;;;;;;;;;;5524603;25;20572;-69
2024/04/10 03:13:26;;;;;;;9.07;8.87;;;;;;;;;;5533495;25;20464;-69
2024/04/10 03:15:55;;;;;;;9.30;9.10;;;;;;;;;;5482743;25;20816;-69
2024/04/10 03:18:24;;;;;;;8.60;8.50;;;;;;;;;;5493974;26;20536;-70
2024/04/10 03:20:51;;;;;;;8.67;8.57;;;;;;;;;;5489544;26;20548;-70
2024/04/10 03:23:20;;;;;;;9.23;9.03;;;;;;;;;;5498252;26;20512;-71
2024/04/10 03:25:47;;;;;;;9.37;9.17;;;;;;;;;;5489867;26;20818;-70
2024/04/10 03:28:16;;;;;;;9.10;8.90;;;;;;;;;;5493343;26;20749;-70
2024/04/10 03:30:42;;;;;;;8.63;8.53;;;;;;;;;;5488965;26;20474;-69
2024/04/10 03:33:14;;;;;;;8.90;8.70;;;;;;;;;;5483607;26;20525;-69
2024/04/10 03:35:40;;;;;;;8.53;8.43;;;;;;;;;;5474115;26;20481;-68
2024/04/10 03:38:09;;;;;;;9.30;9.10;;;;;;;;;;5466401;26;20617;-70
2024/04/10 03:40:35;;;;;;;9.00;8.80;;;;;;;;;;5485453;26;20453;-69
2024/04/10 03:43:04;;;;;;;9.20;9.00;;;;;;;;;;5477934;26;20482;-69
2024/04/10 03:45:33;;;;;;;9.03;8.83;;;;;;;;;;5472786;26;20934;-69
2024/04/10 03:48:03;;;;;;;9.27;9.07;;;;;;;;;;5472043;26;21128;-70
2024/04/10 03:50:32;;;;;;;9.40;9.20;;;;;;;;;;5484003;26;20457;-70
2024/04/10 03:53:01;;;;;;;8.70;8.60;;;;;;;;;;5458615;26;20465;-69
2024/04/10 03:55:27;;;;;;;9.67;9.47;;;;;;;;;;5476216;26;20975;-69
2024/04/10 03:57:56;;;;;;;9.20;9.00;;;;;;;;;;5473974;26;20466;-70
2024/04/10 04:00:23;;;;;;;9.27;9.07;;;;;;;;;;5470046;26;20484;-70
2024/04/10 04:02:52;;;;;;;9.30;9.10;;;;;;;;;;5461711;26;20474;-70
2024/04/10 04:05:19;;;;;;;9.80;9.60;;;;;;;;;;5472136;26;20543;-69
2024/04/10 04:07:51;;;;;;;9.47;9.27;;;;;;;;;;5473489;26;20551;-69
2024/04/10 04:10:17;;;;;;;9.37;9.17;;;;;;;;;;5468255;26;20596;-69
2024/04/10 04:12:46;;;;;;;8.57;8.47;;;;;;;;;;5468228;26;20538;-69
2024/04/10 04:15:12;;;;;;;9.10;8.90;;;;;;;;;;5467474;26;20483;-69
2024/04/10 04:17:42;;;;;;;9.10;8.90;;;;;;;;;;5457977;26;20522;-69
2024/04/10 04:20:10;;;;;;;8.73;8.63;;;;;;;;;;5471656;26;20594;-69
2024/04/10 04:22:40;;;;;;;8.47;8.37;;;;;;;;;;5461276;26;20490;-69
2024/04/10 04:25:09;;;;;;;8.80;8.70;;;;;;;;;;5478828;26;20517;-68
2024/04/10 04:27:38;;;;;;;8.47;8.37;;;;;;;;;;5470491;26;20485;-69
2024/04/10 04:30:07;;;;;;;8.37;8.27;;;;;;;;;;5481295;26;20446;-69
2024/04/10 04:32:36;;;;;;;7.97;7.87;;;;;;;;;;5469960;26;20470;-69
2024/04/10 04:35:02;;;;;;;8.33;8.23;;;;;;;;;;5473405;26;20573;-68
2024/04/10 04:37:31;;;;;;;8.30;8.20;;;;;;;;;;5484226;26;20476;-69
2024/04/10 04:39:59;;;;;;;7.97;7.87;;;;;;;;;;5457726;26;20565;-69
2024/04/10 04:42:30;;;;;;;8.03;7.93;;;;;;;;;;5463649;26;20459;-69
2024/04/10 04:44:57;;;;;;;7.90;7.80;;;;;;;;;;5470012;26;20625;-70
2024/04/10 04:47:28;;;;;;;8.20;8.10;;;;;;;;;;5467886;26;20771;-69
2024/04/10 04:49:54;;;;;;;8.00;7.90;;;;;;;;;;5469146;26;20599;-69
2024/04/10 04:52:23;;;;;;;7.77;7.67;;;;;;;;;;5461361;26;20581;-69
2024/04/10 04:54:50;;;;;;;7.70;7.60;;;;;;;;;;5476625;26;20506;-69
2024/04/10 04:57:20;;;;;;;7.27;7.17;;;;;;;;;;5474043;26;20479;-69
2024/04/10 04:59:50;;;;;;;7.30;7.20;;;;;;;;;;5470760;26;20529;-69
2024/04/10 05:02:19;;;;;;;6.50;6.40;;;;;;;;;;5467593;26;20478;-69
2024/04/10 05:04:55;;;;;;;7.17;7.07;;;;;;;;;;5469440;26;20495;-69
2024/04/10 05:07:23;;;;;;;7.40;7.30;;;;;;;;;;5456939;26;20472;-69
2024/04/10 05:09:53;;;;;;;7.67;7.57;;;;;;;;;;5482758;26;20529;-69
2024/04/10 05:12:19;;;;;;;7.60;7.50;;;;;;;;;;5475953;26;20522;-68
2024/04/10 05:14:55;;;;;;;7.63;7.53;;;;;;;;;;5461352;26;20859;-69
2024/04/10 05:17:22;;;;;;;7.87;7.77;;;;;;;;;;5465742;26;20470;-68
2024/04/10 05:19:51;;;;;;;7.87;7.77;;;;;;;;;;5479916;26;20501;-69
2024/04/10 05:22:18;;;;;;;8.47;8.37;;;;;;;;;;5468770;26;20459;-69
2024/04/10 05:24:47;;;;;;;8.57;8.47;;;;;;;;;;5467190;26;20837;-69
2024/04/10 05:27:22;;;;;;;8.33;8.23;;;;;;;;;;5467347;26;21081;-68
2024/04/10 05:29:59;;;;;;;8.30;8.20;;;;;;;;;;5466938;26;20561;-70
2024/04/10 05:32:26;;;;;;;9.30;9.10;;;;;;;;;;5471685;26;20475;-69
2024/04/10 05:34:56;;;;;;;9.77;9.57;;;;;;;;;;5464176;26;20478;-70
2024/04/10 05:37:23;;;;;;;10.03;9.83;;;;;;;;;;5471811;26;20598;-70
2024/04/10 05:39:51;;;;;;;10.80;10.50;;;;;;;;;;5460234;26;20491;-68
2024/04/10 05:42:18;;;;;;;10.47;10.27;;;;;;;;;;5465910;26;20905;-69
2024/04/10 05:44:48;;;;;;;9.60;9.40;;;;;;;;;;5473483;26;20557;-69
2024/04/10 05:47:17;;;;;;;10.53;10.33;;;;;;;;;;5463657;26;20531;-69
2024/04/10 05:49:46;;;;;;;10.77;10.47;;;;;;;;;;5470065;26;20544;-69
2024/04/10 05:52:13;;;;;;;11.00;10.70;;;;;;;;;;5472678;26;20475;-69
2024/04/10 05:54:42;;;;;;;11.00;10.70;;;;;;;;;;5463523;26;20536;-69
2024/04/10 05:57:10;;;;;;;11.00;10.70;;;;;;;;;;5469491;26;20546;-69
2024/04/10 05:59:40;;;;;;;10.60;10.40;;;;;;;;;;5467190;26;21040;-69
2024/04/10 06:02:06;;;;;;;11.30;11.00;;;;;;;;;;5463768;26;20465;-69
2024/04/10 06:04:38;;;;;;;11.07;10.77;;;;;;;;;;5465481;26;20548;-69
2024/04/10 06:07:05;;;;;;;11.30;11.00;;;;;;;;;;5469424;26;20517;-69
2024/04/10 06:09:34;;;;;;;11.43;11.13;;;;;;;;;;5468076;26;20486;-69
2024/04/10 06:12:01;;;;;;;11.07;10.77;;;;;;;;;;5470147;26;20521;-69
2024/04/10 06:14:32;;;;;;;11.00;10.70;;;;;;;;;;5467949;26;20488;-69
2024/04/10 06:16:58;;;;;;;10.63;10.40;;;;;;;;;;5466739;26;20543;-68
2024/04/10 06:19:28;;;;;;;10.77;10.47;;;;;;;;;;5461682;26;20596;-69
2024/04/10 06:21:56;;;;;;;10.87;10.57;;;;;;;;;;5459106;26;20875;-69
2024/04/10 06:24:26;;;;;;;10.57;10.33;;;;;;;;;;5470697;26;20911;-70
2024/04/10 06:26:52;;;;;;;11.77;11.47;;;;;;;;;;5464165;26;20475;-69
2024/04/10 06:29:22;;;;;;;11.30;11.00;;;;;;;;;;5467959;26;20873;-71
2024/04/10 06:31:48;;;;;;;11.33;11.03;;;;;;;;;;5469177;26;21135;-70
2024/04/10 06:34:17;;;;;;;12.47;12.07;;;;;;;;;;5462031;26;20480;-69
2024/04/10 06:36:44;;;;;;;12.00;11.70;;;;;;;;;;5473417;26;20464;-69
2024/04/10 06:39:15;;;;;;;12.37;11.97;;;;;;;;;;5462432;26;20858;-70
2024/04/10 06:41:42;;;;;;;12.50;12.10;;;;;;;;;;5453882;26;20491;-69
2024/04/10 06:44:11;;;;;;;11.77;11.47;;;;;;;;;;5477973;26;20837;-68
2024/04/10 06:46:40;;;;;;;12.37;11.97;;;;;;;;;;5460731;26;20887;-67
2024/04/10 06:49:09;;;;;;;12.20;11.90;;;;;;;;;;5473609;26;20521;-68
2024/04/10 06:51:37;;;;;;;12.67;12.27;;;;;;;;;;5464990;26;20485;-68
2024/04/10 06:54:05;;;;;;;12.80;12.40;;;;;;;;;;5467336;26;20474;-68
2024/04/10 06:56:34;;;;;;;12.50;12.10;;;;;;;;;;5472029;26;20479;-68
2024/04/10 06:59:03;;;;;;;12.30;11.90;;;;;;;;;;5477345;26;20476;-68
2024/04/10 07:01:29;;;;;;;12.50;12.10;;;;;;;;;;5462812;26;21011;-68
2024/04/10 07:03:58;;;;;;;12.30;11.90;;;;;;;;;;5443614;26;20474;-69
2024/04/10 07:06:25;;;;;;;12.80;12.40;;;;;;;;;;5452718;26;20478;-68
2024/04/10 07:08:54;;;;;;;13.23;12.83;;;;;;;;;;5448677;26;20476;-68
2024/04/10 07:11:21;;;;;;;13.17;12.77;;;;;;;;;;5460817;26;20485;-69
2024/04/10 07:13:53;;;;;;;13.47;13.07;;;;;;;;;;5458262;26;21231;-68
2024/04/10 07:16:20;;;;;;;12.97;12.57;;;;;;;;;;5462186;26;21082;-69
2024/04/10 07:18:49;;;;;;;13.20;12.80;;;;;;;;;;5461851;26;21071;-68
2024/04/10 07:21:17;;;;;;;13.27;12.87;;;;;;;;;;5459883;26;20606;-68
2024/04/10 07:23:47;;;;;;;13.30;12.90;;;;;;;;;;5460581;26;21270;-68
2024/04/10 07:26:15;;;;;;;13.47;13.07;;;;;;;;;;5464164;26;20547;-68
2024/04/10 07:28:45;;;;;;;14.40;13.90;;;;;;;;;;5457986;26;20475;-69
2024/04/10 07:31:16;;;;;;;13.90;13.40;;;;;;;;;;5461287;26;20871;-69
2024/04/10 07:33:45;;;;;;;14.60;14.10;;;;;;;;;;5460375;26;20487;-68
2024/04/10 07:36:13;;;;;;;14.80;14.30;;;;;;;;;;5464863;26;21016;-68
2024/04/10 07:38:42;;;;;;;14.93;14.40;;;;;;;;;;5461691;26;21064;-69
2024/04/10 07:41:09;;;;;;;14.60;14.10;;;;;;;;;;5460885;26;20497;-68
2024/04/10 07:43:39;;;;;;;14.33;13.83;;;;;;;;;;5466100;26;20532;-69
2024/04/10 07:46:10;;;;;;;14.17;13.67;;;;;;;;;;5475812;26;20533;-68
2024/04/10 07:48:42;;;;;;;14.70;14.20;;;;;;;;;;5456887;26;21049;-68
2024/04/10 07:51:12;;;;;;;14.97;14.47;;;;;;;;;;5468192;26;20483;-68
2024/04/10 07:53:43;;;;;;;15.23;14.73;;;;;;;;;;5463140;26;21013;-68
2024/04/10 07:56:09;;;;;;;15.57;15.00;;;;;;;;;;5463124;26;20490;-68
2024/04/10 07:58:39;;;;;;;15.40;14.80;;;;;;;;;;5471400;26;20534;-68
2024/04/10 08:01:05;;;;;;;15.00;14.50;;;;;;;;;;5472991;26;20467;-68
2024/04/10 08:03:35;;;;;;;15.83;15.23;;;;;;;;;;5470480;26;20484;-68
2024/04/10 08:06:04;;;;;;;15.70;15.10;;;;;;;;;;5451173;26;20556;-68
2024/04/10 08:08:35;;;;;;;16.23;15.63;;;;;;;;;;5476623;26;20636;-69
2024/04/10 08:11:02;;;;;;;15.63;15.03;;;;;;;;;;5479897;26;20477;-68
2024/04/10 08:13:31;;;;;;;15.80;15.20;;;;;;;;;;5470634;26;20454;-68
2024/04/10 08:15:59;;;;;;;15.90;15.30;;;;;;;;;;5463885;26;21212;-68
2024/04/10 08:18:28;;;;;;;16.40;15.80;;;;;;;;;;5482617;26;20525;-69
2024/04/10 08:20:59;;;;;;;15.30;14.73;;;;;;;;;;5471548;26;20558;-68
2024/04/10 08:23:30;;;;;;;16.30;15.70;;;;;;;;;;5468117;26;20490;-69
2024/04/10 08:25:57;;;;;;;15.77;15.17;;;;;;;;;;5473030;26;20679;-69
2024/04/10 08:28:26;;;;;;;15.90;15.30;;;;;;;;;;5483933;26;20470;-68
2024/04/10 08:30:53;;;;;;;15.73;15.13;;;;;;;;;;5475245;26;20537;-68
2024/04/10 08:33:22;;;;;;;16.03;15.43;;;;;;;;;;5469367;26;20489;-67
2024/04/10 08:35:56;;;;;;;15.57;14.97;;;;;;;;;;5469884;26;20541;-68
2024/04/10 08:38:25;;;;;;;16.23;15.63;;;;;;;;;;5471052;26;20751;-68
2024/04/10 08:40:58;;;;;;;16.33;15.73;;;;;;;;;;5470000;26;20976;-68
2024/04/10 08:43:31;;;;;;;16.13;15.53;;;;;;;;;;5479567;26;20863;-69
2024/04/10 08:45:57;;;;;;;16.03;15.43;;;;;;;;;;5472753;26;20477;-69
2024/04/10 08:48:27;;;;;;;15.70;15.10;;;;;;;;;;5480871;26;20951;-69
2024/04/10 08:50:54;;;;;;;16.00;15.40;;;;;;;;;;5471162;26;20532;-69
2024/04/10 08:53:24;;;;;;;15.90;15.30;;;;;;;;;;5469223;26;20778;-69
2024/04/10 08:55:51;;;;;;;15.83;15.23;;;;;;;;;;5458829;26;20481;-69
2024/04/10 08:58:23;;;;;;;15.77;15.17;;;;;;;;;;5480085;26;21010;-69
2024/04/10 09:00:50;;;;;;;15.87;15.27;;;;;;;;;;5466614;26;21050;-70
2024/04/10 09:03:19;;;;;;;15.87;15.27;;;;;;;;;;5464813;26;20473;-70
2024/04/10 09:05:46;;;;;;;16.03;15.43;;;;;;;;;;5471830;26;20525;-69
2024/04/10 09:08:16;;;;;;;16.30;15.70;;;;;;;;;;5458397;26;20537;-70
2024/04/10 09:10:42;;;;;;;16.57;15.97;;;;;;;;;;5477772;26;20574;-69
2024/04/10 09:13:13;;;;;;;16.07;15.47;;;;;;;;;;5462191;26;20522;-70
2024/04/10 09:15:42;;;;;;;16.47;15.87;;;;;;;;;;5468975;26;20860;-69
2024/04/10 09:18:12;;;;;;;16.20;15.60;;;;;;;;;;5483662;26;20465;-70
2024/04/10 09:20:40;;;;;;;15.70;15.10;;;;;;;;;;5463315;26;20537;-69
2024/04/10 09:23:10;;;;;;;16.37;15.77;;;;;;;;;;5466302;26;20546;-70
2024/04/10 09:25:37;;;;;;;16.20;15.60;;;;;;;;;;5469369;26;20871;-68
2024/04/10 09:28:07;;;;;;;16.23;15.63;;;;;;;;;;5480556;26;20516;-69
2024/04/10 09:30:33;;;;;;;16.77;16.17;;;;;;;;;;5462076;26;20472;-70
2024/04/10 09:33:05;;;;;;;16.20;15.60;;;;;;;;;;5474227;26;20999;-69
2024/04/10 09:35:33;;;;;;;16.20;15.60;;;;;;;;;;5469445;26;20599;-70
2024/04/10 09:38:03;;;;;;;16.73;16.13;;;;;;;;;;5465576;26;20480;-70
2024/04/10 09:40:30;;;;;;;17.73;17.03;;;;;;;;;;5465156;26;20473;-70
2024/04/10 09:43:01;;;;;;;16.57;15.97;;;;;;;;;;5464909;26;21082;-70
2024/04/10 09:45:32;;;;;;;16.40;15.80;;;;;;;;;;5481391;26;20472;-69
2024/04/10 09:48:07;;;;;;;16.30;15.70;;;;;;;;;;5468322;26;20913;-70
2024/04/10 09:50:37;;;;;;;16.67;16.07;;;;;;;;;;5471091;26;21087;-69
2024/04/10 09:53:07;;;;;;;16.50;15.90;;;;;;;;;;5470777;26;20474;-70
2024/04/10 09:55:37;;;;;;;16.93;16.33;;;;;;;;;;5470593;26;20452;-69
2024/04/10 09:58:06;;;;;;;16.23;15.63;;;;;;;;;;5466016;26;20528;-69
2024/04/10 10:00:34;;;;;;;16.90;16.30;;;;;;;;;;5463498;26;20563;-69
2024/04/10 10:03:10;;;;;;;17.10;16.50;;;;;;;;;;5457700;26;20471;-70
2024/04/10 10:05:39;;;;;;;16.87;16.27;;;;;;;;;;5465896;26;20965;-70
2024/04/10 10:08:09;;;;;;;16.30;15.70;;;;;;;;;;5464968;26;21095;-70
2024/04/10 10:10:45;;;;;;;16.73;16.13;;;;;;;;;;5470145;26;20487;-70
2024/04/10 10:13:14;;;;;;;16.20;15.60;;;;;;;;;;5462338;26;20545;-69
2024/04/10 10:15:41;;;;;;;16.50;15.90;;;;;;;;;;5473108;26;20724;-68
2024/04/10 10:18:10;;;;;;;16.30;15.70;;;;;;;;;;5461238;26;20525;-70
2024/04/10 10:20:36;;;;;;;16.20;15.60;;;;;;;;;;5453220;26;20605;-70
2024/04/10 10:23:08;;;;;;;16.83;16.23;;;;;;;;;;5466177;26;20474;-69
2024/04/10 10:25:36;;;;;;;16.10;15.50;;;;;;;;;;5477731;26;20804;-69
2024/04/10 10:28:09;;;;;;;16.57;15.97;;;;;;;;;;5458588;26;20483;-68
2024/04/10 10:30:36;;;;;;;16.10;15.50;;;;;;;;;;5462859;26;20525;-70
2024/04/10 10:33:06;;;;;;;15.70;15.20;;;;;;;;;;5469825;26;20931;-70
2024/04/10 10:35:33;;;;;;;15.40;14.90;;;;;;;;;;5473105;26;20508;-69
2024/04/10 10:38:05;;;;;;;15.70;15.20;;;;;;;;;;5460974;26;20820;-69
2024/04/10 10:40:34;;;;;;;15.80;15.30;;;;;;;;;;5467890;26;20479;-68
2024/04/10 10:43:04;;;;;;;15.50;15.00;;;;;;;;;;5472562;26;20531;-69
2024/04/10 10:45:31;;;;;;;16.40;15.80;;;;;;;;;;5458801;26;20479;-68
2024/04/10 10:48:00;;;;;;;16.30;15.70;;;;;;;;;;5464492;26;20479;-69
2024/04/10 10:50:26;;;;;;;16.20;15.60;;;;;;;;;;5468899;26;21067;-69
2024/04/10 10:52:56;;;;;;;16.07;15.47;;;;;;;;;;5473890;26;20675;-69
2024/04/10 10:55:24;;;;;;;15.60;15.10;;;;;;;;;;5473572;26;21080;-69
2024/04/10 10:58:06;;;;;;;15.50;15.00;;;;;;;;;;5448683;26;20487;-68
2024/04/10 11:00:33;;;;;;;16.50;15.97;;;;;;;;;;5480065;26;20858;-68
2024/04/10 11:03:06;;;;;;;16.10;15.60;;;;;;;;;;5459698;26;20548;-67
2024/04/10 11:05:32;;;;;;;16.50;15.90;;;;;;;;;;5464293;26;20525;-68
2024/04/10 11:08:02;;;;;;;16.83;16.23;;;;;;;;;;5465035;26;20473;-68
2024/04/10 11:10:29;;;;;;;16.20;15.67;;;;;;;;;;5476096;26;21001;-67
2024/04/10 11:13:01;;;;;;;15.70;15.20;;;;;;;;;;5477044;26;21053;-67
2024/04/10 11:15:38;;;;;;;15.80;15.30;;;;;;;;;;5461302;26;20537;-69
2024/04/10 11:18:07;;;;;;;15.63;15.13;;;;;;;;;;5462688;26;20476;-67
2024/04/10 11:20:34;;;;;;;15.77;15.27;;;;;;;;;;5457547;26;20478;-68
2024/04/10 11:23:04;;;;;;;16.37;15.80;;;;;;;;;;5467490;26;20613;-69
2024/04/10 11:25:31;;;;;;;16.33;15.83;;;;;;;;;;5461092;26;20993;-70
2024/04/10 11:28:00;;;;;;;17.20;16.60;;;;;;;;;;5460167;26;20585;-69
2024/04/10 11:30:26;;;;;;;16.23;15.73;;;;;;;;;;5475059;26;20477;-68
2024/04/10 11:32:58;;;;;;;15.90;15.40;;;;;;;;;;5469646;26;21068;-68
2024/04/10 11:35:25;;;;;;;16.00;15.50;;;;;;;;;;5461375;26;20500;-68
2024/04/10 11:37:55;;;;;;;15.70;15.20;;;;;;;;;;5471615;26;20478;-68
2024/04/10 11:40:22;;;;;;;16.10;15.50;;;;;;;;;;5464888;26;20857;-69
2024/04/10 11:42:51;;;;;;;15.63;15.13;;;;;;;;;;5460537;26;20486;-69
2024/04/10 11:45:17;;;;;;;15.63;15.13;;;;;;;;;;5478690;26;20471;-68
2024/04/10 11:47:48;;;;;;;15.57;15.07;;;;;;;;;;5468536;26;20613;-68
2024/04/10 11:50:17;;;;;;;15.80;15.30;;;;;;;;;;5464209;26;20475;-69
2024/04/10 11:52:47;;;;;;;15.67;15.17;;;;;;;;;;5477104;26;20991;-68
2024/04/10 11:55:14;;;;;;;15.70;15.20;;;;;;;;;;5480706;26;20484;-67
2024/04/10 11:57:45;;;;;;;15.00;14.50;;;;;;;;;;5482270;26;20910;-68
2024/04/10 12:00:12;;;;;;;14.90;14.40;;;;;;;;;;5465350;26;20485;-68
2024/04/10 12:02:42;;;;;;;14.83;14.33;;;;;;;;;;5477379;26;20972;-68
2024/04/10 12:05:08;;;;;;;15.37;14.87;;;;;;;;;;5461097;26;20484;-68
2024/04/10 12:07:41;;;;;;;15.20;14.70;;;;;;;;;;5477321;26;20481;-67
2024/04/10 12:10:08;;;;;;;15.47;14.97;;;;;;;;;;5471287;26;20563;-68
2024/04/10 12:12:37;;;;;;;15.30;14.80;;;;;;;;;;5470465;26;20476;-66
2024/04/10 12:15:05;;;;;;;15.67;15.17;;;;;;;;;;5469330;26;20477;-68
2024/04/10 12:17:35;;;;;;;15.73;15.23;;;;;;;;;;5475076;26;20533;-67
2024/04/10 12:20:02;;;;;;;15.83;15.33;;;;;;;;;;5476982;26;20516;-69
2024/04/10 12:22:31;;;;;;;15.87;15.37;;;;;;;;;;5467675;26;21432;-67
2024/04/10 12:25:01;;;;;;;15.60;15.10;;;;;;;;;;5465855;26;20471;-67
2024/04/10 12:27:30;;;;;;;15.60;15.10;;;;;;;;;;5475550;26;20499;-68
2024/04/10 12:29:57;;;;;;;15.87;15.37;;;;;;;;;;5473628;26;21159;-67
2024/04/10 12:32:26;;;;;;;15.70;15.20;;;;;;;;;;5481520;26;21643;-67
2024/04/10 12:34:58;;;;;;;16.20;15.60;;;;;;;;;;5468519;26;20478;-69
2024/04/10 12:40:15;;;;;;;15.80;15.30;;;;;;;;;;5464763;26;21094;-68
2024/04/10 12:42:44;;;;;;;15.40;14.90;;;;;;;;;;5465949;26;20474;-70
2024/04/10 12:45:15;;;;;;;15.60;15.10;;;;;;;;;;5463735;26;20516;-68
2024/04/10 12:47:42;;;;;;;15.87;15.37;;;;;;;;;;5458161;26;21109;-70
2024/04/10 12:50:13;;;;;;;15.90;15.40;;;;;;;;;;5465174;26;20566;-69
2024/04/10 12:52:40;;;;;;;16.30;15.80;;;;;;;;;;5452823;26;21386;-68
2024/04/10 12:55:09;;;;;;;15.47;14.97;;;;;;;;;;5462241;26;20563;-68
2024/04/10 12:57:38;;;;;;;15.63;15.13;;;;;;;;;;5461793;26;20476;-68
2024/04/10 13:00:09;;;;;;;15.50;15.00;;;;;;;;;;5462872;26;20480;-68
2024/04/10 13:02:35;;;;;;;16.77;16.17;;;;;;;;;;5463330;26;20575;-68
2024/04/10 13:05:04;;;;;;;16.07;15.57;;;;;;;;;;5461515;26;20541;-68
2024/04/10 13:07:30;;;;;;;15.80;15.30;;;;;;;;;;5462510;26;20472;-70
2024/04/10 13:09:59;;;;;;;16.00;15.50;;;;;;;;;;5458007;26;20479;-68
2024/04/10 13:12:26;;;;;;;15.63;15.13;;;;;;;;;;5463158;26;20547;-67
2024/04/10 13:14:58;;;;;;;15.20;14.70;;;;;;;;;;5462842;26;21085;-70
2024/04/10 13:17:27;;;;;;;15.77;15.27;;;;;;;;;;5459965;26;20617;-68
2024/04/10 13:19:56;;;;;;;14.80;14.30;;;;;;;;;;5462753;26;20481;-69
2024/04/10 13:22:24;;;;;;;14.80;14.30;;;;;;;;;;5457189;26;20562;-67
2024/04/10 13:24:53;;;;;;;14.97;14.47;;;;;;;;;;5458721;26;21022;-69
2024/04/10 13:27:20;;;;;;;15.00;14.50;;;;;;;;;;5462962;26;20557;-69
2024/04/10 13:29:51;;;;;;;14.70;14.20;;;;;;;;;;5460537;26;20591;-67
2024/04/10 13:32:20;;;;;;;14.83;14.33;;;;;;;;;;5465520;26;21001;-68
2024/04/10 13:34:51;;;;;;;14.60;14.10;;;;;;;;;;5462985;26;20530;-69
2024/04/10 13:37:17;;;;;;;13.87;13.47;;;;;;;;;;5464992;26;20485;-68
2024/04/10 13:39:46;;;;;;;14.33;13.93;;;;;;;;;;5463174;26;20537;-68
2024/04/10 13:42:12;;;;;;;14.53;14.03;;;;;;;;;;5458130;26;20563;-70
2024/04/10 13:44:41;;;;;;;14.90;14.40;;;;;;;;;;5460606;26;20873;-71
2024/04/10 13:47:08;;;;;;;14.80;14.30;;;;;;;;;;5458807;26;20537;-68
2024/04/10 13:49:39;;;;;;;14.30;13.90;;;;;;;;;;5462847;26;20543;-68
2024/04/10 13:52:06;;;;;;;14.20;13.80;;;;;;;;;;5459547;26;20551;-68
2024/04/10 13:54:35;;;;;;;15.00;14.50;;;;;;;;;;5454509;26;20532;-68
2024/04/10 13:57:01;;;;;;;14.13;13.73;;;;;;;;;;5460336;26;20533;-70
2024/04/10 13:59:30;;;;;;;14.23;13.83;;;;;;;;;;5460878;26;20601;-67
2024/04/10 14:01:56;;;;;;;14.47;14.07;;;;;;;;;;5461197;26;20538;-70
2024/04/10 14:04:25;;;;;;;14.40;14.00;;;;;;;;;;5460237;26;20483;-68
2024/04/10 14:06:54;;;;;;;15.07;14.57;;;;;;;;;;5460504;26;20508;-68
2024/04/10 14:09:23;;;;;;;14.90;14.40;;;;;;;;;;5461505;26;20529;-68
2024/04/10 14:11:49;;;;;;;14.03;13.63;;;;;;;;;;5456701;26;20585;-68
2024/04/10 14:14:18;;;;;;;14.40;14.00;;;;;;;;;;5461570;26;20530;-69
2024/04/10 14:16:47;;;;;;;14.00;13.60;;;;;;;;;;5457532;26;21008;-70
2024/04/10 14:19:17;;;;;;;13.70;13.30;;;;;;;;;;5463081;26;20490;-70
2024/04/10 14:21:43;;;;;;;13.90;13.50;;;;;;;;;;5459042;26;20626;-69
2024/04/10 14:24:15;;;;;;;14.10;13.70;;;;;;;;;;5462337;26;20472;-70
2024/04/10 14:26:43;;;;;;;13.80;13.40;;;;;;;;;;5451112;26;20897;-69
2024/04/10 14:29:12;;;;;;;14.17;13.77;;;;;;;;;;5459182;26;20490;-69
2024/04/10 14:31:38;;;;;;;13.70;13.30;;;;;;;;;;5457705;26;20473;-71
2024/04/10 14:34:07;;;;;;;14.50;14.10;;;;;;;;;;5462114;26;20460;-70
2024/04/10 14:36:36;;;;;;;14.00;13.60;;;;;;;;;;5460513;26;20488;-69